Saxtons River, Vermont
Current Conditions -  °F | °C
As of 4:54 AM on Friday 24 Oct 2014 (Local Time) from KVSF Reporting Station
Overcast Overcast  
Wind Chill: 44°   Ceiling: 1600
Heat Index: 44°   Visibility: 8mi
Dew Point: 41°   Wind: 0mph
Humidity: 89%   Direction: NA
Pressure: 29.77"   Gusts: NA
Location:  43.14°N, 72.51°W
Report Text: KVSF 240854Z AUTO 00000KT 8SM OVC016 07/05 A2977 RMK AO2 RAE10 SLP084 P0000 60005 T00670050 53003
Loading
Personal Weather Stations






























Interactive Weather Map
Tropical Storm Tracking
New forecast layout! Learn more

10-Day Weather Forecast

Advertisements
Track Severe Weather on mobile